Time;durP1;ratioP1;P1;durP2;ratioP2;P2;SDS_P1;SDS_P2;PMS_P1;PMS_P2;Temp;Humidity;BMP_temperature;BMP_pressure;BME280_temperature;BME280_humidity;BME280_pressure;Samples;Min_cycle;Max_cycle;Signal;HPM_P1;HPM_P2
2022/07/27 00:03:14;;;;;;;30.35;20.38;;;;;;;;;;8393736;28;20087;-85
2022/07/27 00:07:17;;;;;;;30.77;20.55;;;;;;;;;;8409856;28;20062;-84
2022/07/27 00:11:19;;;;;;;31.20;20.38;;;;;;;;;;8396433;28;20046;-92
2022/07/27 00:15:24;;;;;;;31.40;19.63;;;;;;;;;;8421307;28;20071;-84
2022/07/27 00:19:26;;;;;;;30.88;20.50;;;;;;;;;;8389306;28;20040;-84
2022/07/27 00:23:29;;;;;;;32.08;20.40;;;;;;;;;;8414876;28;20048;-84
2022/07/27 00:27:32;;;;;;;33.97;21.63;;;;;;;;;;8380198;28;20049;-84
2022/07/27 00:31:36;;;;;;;34.38;21.10;;;;;;;;;;8432497;28;20051;-86
2022/07/27 00:35:42;;;;;;;31.90;22.13;;;;;;;;;;8382749;28;20052;-84
2022/07/27 00:39:45;;;;;;;35.15;22.20;;;;;;;;;;8379872;28;20060;-85
2022/07/27 00:43:53;;;;;;;31.60;19.55;;;;;;;;;;8377103;28;20045;-83
2022/07/27 00:47:57;;;;;;;29.40;20.10;;;;;;;;;;8385580;28;20476;-84
2022/07/27 00:52:00;;;;;;;35.03;21.88;;;;;;;;;;8438948;28;20092;-83
2022/07/27 00:56:02;;;;;;;35.75;22.10;;;;;;;;;;8412532;28;20040;-83
2022/07/27 01:00:06;;;;;;;29.33;21.20;;;;;;;;;;8393538;28;20060;-84
2022/07/27 01:04:11;;;;;;;32.42;21.75;;;;;;;;;;8398313;28;20040;-84
2022/07/27 01:08:16;;;;;;;30.00;20.42;;;;;;;;;;8396627;28;20044;-83
2022/07/27 01:12:20;;;;;;;32.58;20.58;;;;;;;;;;8389196;28;20041;-83
2022/07/27 01:16:24;;;;;;;30.55;19.63;;;;;;;;;;8391914;28;20071;-83
2022/07/27 01:20:28;;;;;;;29.83;19.92;;;;;;;;;;8408768;28;20044;-84
2022/07/27 01:24:33;;;;;;;31.33;20.42;;;;;;;;;;8375603;28;20048;-84
2022/07/27 01:28:35;;;;;;;28.20;19.23;;;;;;;;;;8383974;28;20040;-83
2022/07/27 01:32:38;;;;;;;31.02;20.70;;;;;;;;;;8398143;28;20049;-83
2022/07/27 01:36:40;;;;;;;28.75;20.40;;;;;;;;;;8358678;28;20044;-83
2022/07/27 01:40:45;;;;;;;28.00;19.70;;;;;;;;;;8406385;28;20045;-84
2022/07/27 01:44:47;;;;;;;28.70;19.58;;;;;;;;;;8401569;28;20053;-84
2022/07/27 01:48:50;;;;;;;26.40;19.52;;;;;;;;;;8397387;28;20070;-85
2022/07/27 01:52:52;;;;;;;27.80;19.58;;;;;;;;;;8402405;28;20045;-85
2022/07/27 01:56:57;;;;;;;28.73;18.23;;;;;;;;;;8396743;28;20111;-85
2022/07/27 02:00:59;;;;;;;24.90;17.88;;;;;;;;;;8406204;28;20484;-84
2022/07/27 02:05:06;;;;;;;32.67;20.23;;;;;;;;;;8391578;28;20400;-85
2022/07/27 02:09:11;;;;;;;29.75;19.02;;;;;;;;;;8388103;28;20096;-86
2022/07/27 02:13:17;;;;;;;31.35;19.85;;;;;;;;;;8396925;28;20052;-85
2022/07/27 02:17:20;;;;;;;26.45;17.15;;;;;;;;;;8367462;28;20495;-84
2022/07/27 02:21:23;;;;;;;33.47;18.52;;;;;;;;;;8384533;28;20419;-84
2022/07/27 02:25:28;;;;;;;27.25;16.25;;;;;;;;;;8378843;28;20056;-84
2022/07/27 02:29:38;;;;;;;22.63;15.45;;;;;;;;;;8387320;28;20403;-84
2022/07/27 02:33:41;;;;;;;25.88;16.73;;;;;;;;;;8434275;28;20040;-84
2022/07/27 02:37:49;;;;;;;22.17;15.65;;;;;;;;;;8436529;28;20115;-84
2022/07/27 02:41:51;;;;;;;21.20;14.32;;;;;;;;;;8435204;28;20044;-84
2022/07/27 02:45:56;;;;;;;23.75;15.40;;;;;;;;;;8441103;28;20131;-85
2022/07/27 02:49:58;;;;;;;23.27;15.48;;;;;;;;;;8440856;28;20039;-84
2022/07/27 02:54:01;;;;;;;22.73;14.55;;;;;;;;;;8426190;28;20120;-85
2022/07/27 02:58:03;;;;;;;19.23;14.32;;;;;;;;;;8446152;28;20067;-86
2022/07/27 03:02:08;;;;;;;18.40;12.77;;;;;;;;;;8443233;28;20040;-84
2022/07/27 03:06:10;;;;;;;17.92;13.40;;;;;;;;;;8441989;28;20047;-84
2022/07/27 03:10:13;;;;;;;18.05;13.05;;;;;;;;;;8440684;28;20108;-84
2022/07/27 03:14:18;;;;;;;17.02;12.45;;;;;;;;;;8445592;28;20044;-84
2022/07/27 03:18:26;;;;;;;14.95;11.35;;;;;;;;;;8426796;28;20098;-85
2022/07/27 03:22:31;;;;;;;18.73;11.73;;;;;;;;;;8441065;28;20048;-84
2022/07/27 03:26:34;;;;;;;17.73;11.77;;;;;;;;;;8443101;28;20131;-84
2022/07/27 03:30:39;;;;;;;14.15;9.07;;;;;;;;;;8422980;28;20058;-84
2022/07/27 03:34:44;;;;;;;15.85;11.13;;;;;;;;;;8424401;28;20079;-84
2022/07/27 03:38:46;;;;;;;14.52;10.63;;;;;;;;;;8441152;28;20090;-84
2022/07/27 03:42:49;;;;;;;13.38;9.52;;;;;;;;;;8440461;28;20147;-84
2022/07/27 03:46:55;;;;;;;13.35;9.93;;;;;;;;;;8437368;28;20063;-85
2022/07/27 03:50:59;;;;;;;10.93;9.48;;;;;;;;;;8420462;28;20139;-84
2022/07/27 03:55:05;;;;;;;18.25;9.02;;;;;;;;;;8436710;28;20388;-83
2022/07/27 03:59:08;;;;;;;11.80;8.20;;;;;;;;;;8375713;28;20053;-84
2022/07/27 04:03:14;;;;;;;10.65;7.68;;;;;;;;;;8382392;28;20055;-84
2022/07/27 04:07:18;;;;;;;10.07;7.60;;;;;;;;;;8404974;28;20067;-84
2022/07/27 04:11:29;;;;;;;13.50;7.75;;;;;;;;;;8389755;28;20066;-84
2022/07/27 04:15:32;;;;;;;14.95;8.57;;;;;;;;;;8372570;28;20393;-84
2022/07/27 04:19:35;;;;;;;14.18;8.40;;;;;;;;;;8372178;28;20045;-84
2022/07/27 04:23:39;;;;;;;15.52;9.05;;;;;;;;;;8376079;28;20049;-84
2022/07/27 04:27:41;;;;;;;14.38;9.27;;;;;;;;;;8371087;28;20033;-84
2022/07/27 04:31:46;;;;;;;11.07;8.70;;;;;;;;;;8370743;28;20033;-84
2022/07/27 04:35:48;;;;;;;13.38;8.68;;;;;;;;;;8371675;28;20049;-84
2022/07/27 04:39:57;;;;;;;11.93;7.70;;;;;;;;;;8373877;28;20069;-83
2022/07/27 04:44:00;;;;;;;10.20;8.23;;;;;;;;;;8376186;28;20049;-83
2022/07/27 04:48:06;;;;;;;12.88;8.35;;;;;;;;;;8390751;28;20088;-83
2022/07/27 04:52:08;;;;;;;12.38;7.30;;;;;;;;;;8438759;28;20051;-84
2022/07/27 04:56:12;;;;;;;12.50;7.25;;;;;;;;;;8436842;28;20048;-82
2022/07/27 05:00:16;;;;;;;9.68;6.38;;;;;;;;;;8438935;28;20052;-83
2022/07/27 05:04:19;;;;;;;14.73;6.85;;;;;;;;;;8437162;28;20385;-82
2022/07/27 05:08:23;;;;;;;11.05;6.65;;;;;;;;;;8436523;28;20052;-82
2022/07/27 05:12:29;;;;;;;9.95;6.63;;;;;;;;;;8412384;28;20044;-83
2022/07/27 05:16:32;;;;;;;10.23;5.90;;;;;;;;;;8404365;28;20484;-83
2022/07/27 05:20:36;;;;;;;11.23;5.95;;;;;;;;;;8398803;28;20052;-83
2022/07/27 05:24:42;;;;;;;11.98;5.13;;;;;;;;;;8419268;28;20472;-83
2022/07/27 05:28:52;;;;;;;8.40;4.10;;;;;;;;;;8424853;28;20123;-82
2022/07/27 05:32:56;;;;;;;6.72;4.38;;;;;;;;;;8431035;28;20048;-83
2022/07/27 05:36:59;;;;;;;6.00;3.15;;;;;;;;;;8421614;28;20408;-91
2022/07/27 05:41:02;;;;;;;7.50;3.35;;;;;;;;;;8398613;28;20040;-89
2022/07/27 05:45:08;;;;;;;5.82;3.33;;;;;;;;;;8404309;28;20063;-86
2022/07/27 05:49:11;;;;;;;6.85;3.20;;;;;;;;;;8431167;28;20460;-82
2022/07/27 05:53:14;;;;;;;8.02;2.85;;;;;;;;;;8427924;28;20052;-96
2022/07/27 05:57:19;;;;;;;5.95;3.30;;;;;;;;;;8394402;28;20036;-83
2022/07/27 06:01:24;;;;;;;8.43;3.30;;;;;;;;;;8414619;28;20040;-81
2022/07/27 06:05:27;;;;;;;5.30;2.75;;;;;;;;;;8425368;28;20044;-82
2022/07/27 06:09:31;;;;;;;6.45;2.60;;;;;;;;;;8375286;28;20054;-87
2022/07/27 06:13:35;;;;;;;4.88;2.20;;;;;;;;;;8371348;28;20128;-82
2022/07/27 06:17:40;;;;;;;5.32;2.40;;;;;;;;;;8390303;28;20507;-82
2022/07/27 06:21:51;;;;;;;4.07;2.10;;;;;;;;;;8383546;28;20049;-82
2022/07/27 06:26:19;;;;;;;3.03;1.80;;;;;;;;;;8387586;28;20114;-82
2022/07/27 06:30:44;;;;;;;5.50;2.03;;;;;;;;;;8373215;28;20507;-85
2022/07/27 06:35:15;;;;;;;4.07;1.92;;;;;;;;;;8368909;28;20477;-83
2022/07/27 06:39:27;;;;;;;5.13;1.77;;;;;;;;;;8390310;28;20075;-84
2022/07/27 06:43:56;;;;;;;2.70;1.65;;;;;;;;;;8367812;28;20056;-82
2022/07/27 06:48:30;;;;;;;2.15;1.50;;;;;;;;;;8366454;28;20123;-82
2022/07/27 06:52:52;;;;;;;4.88;1.60;;;;;;;;;;8357239;28;20140;-82
2022/07/27 06:57:11;;;;;;;3.17;1.33;;;;;;;;;;8362452;28;20044;-83
2022/07/27 07:01:29;;;;;;;5.32;1.67;;;;;;;;;;8353050;28;20484;-82
2022/07/27 07:05:57;;;;;;;3.80;1.40;;;;;;;;;;8352149;28;20099;-83
2022/07/27 07:10:21;;;;;;;3.47;1.48;;;;;;;;;;8366253;28;20124;-82
2022/07/27 07:14:42;;;;;;;4.85;1.38;;;;;;;;;;8352496;28;20242;-83
2022/07/27 07:19:05;;;;;;;2.78;1.58;;;;;;;;;;8365602;28;20049;-83
2022/07/27 07:23:28;;;;;;;4.13;1.40;;;;;;;;;;8347979;28;20056;-83
2022/07/27 07:27:51;;;;;;;2.50;1.30;;;;;;;;;;8355157;28;20073;-84
2022/07/27 07:32:08;;;;;;;2.45;1.20;;;;;;;;;;8351923;28;20156;-84
2022/07/27 07:36:34;;;;;;;3.65;1.50;;;;;;;;;;8355071;28;20072;-83
2022/07/27 07:40:40;;;;;;;5.97;1.45;;;;;;;;;;8359442;28;20592;-91
2022/07/27 07:44:57;;;;;;;5.03;1.40;;;;;;;;;;8363721;28;20052;-83
2022/07/27 07:49:01;;;;;;;1.10;0.98;;;;;;;;;;8405321;28;20056;-84
2022/07/27 07:53:05;;;;;;;2.28;1.20;;;;;;;;;;8419402;28;20063;-91
2022/07/27 07:57:08;;;;;;;4.65;1.73;;;;;;;;;;8436627;28;20118;-82
2022/07/27 08:01:13;;;;;;;4.88;1.40;;;;;;;;;;8427026;28;20048;-82
2022/07/27 08:05:17;;;;;;;3.50;1.25;;;;;;;;;;8425576;28;20526;-82
2022/07/27 08:09:25;;;;;;;6.03;1.90;;;;;;;;;;8405312;28;20464;-81
2022/07/27 08:13:28;;;;;;;4.43;1.48;;;;;;;;;;8378316;28;20044;-82
2022/07/27 08:17:33;;;;;;;2.42;1.27;;;;;;;;;;8427709;28;20060;-83
2022/07/27 08:21:36;;;;;;;5.18;1.27;;;;;;;;;;8415572;28;20048;-83
2022/07/27 08:25:40;;;;;;;105.60;18.75;;;;;;;;;;8425922;28;20044;-82
2022/07/27 08:29:44;;;;;;;2.95;1.02;;;;;;;;;;8392767;28;20040;-84
2022/07/27 08:33:49;;;;;;;3.40;1.40;;;;;;;;;;8390543;28;20040;-83
2022/07/27 08:37:53;;;;;;;3.38;1.02;;;;;;;;;;8391548;28;20102;-82
2022/07/27 08:41:59;;;;;;;4.78;1.10;;;;;;;;;;8389883;28;20053;-89
2022/07/27 08:46:02;;;;;;;3.42;1.27;;;;;;;;;;8382810;28;20051;-82
2022/07/27 08:50:22;;;;;;;10.93;1.67;;;;;;;;;;8394038;28;20052;-82
2022/07/27 08:54:25;;;;;;;22.27;5.65;;;;;;;;;;8409349;28;20044;-93
2022/07/27 08:58:29;;;;;;;3.13;1.30;;;;;;;;;;8429989;28;20128;-87
2022/07/27 09:02:33;;;;;;;8.45;1.92;;;;;;;;;;8419600;28;20052;-95
2022/07/27 09:06:47;;;;;;;1.83;0.95;;;;;;;;;;8431604;28;20476;-81
2022/07/27 09:11:04;;;;;;;4.50;1.33;;;;;;;;;;8379870;28;20048;-82
2022/07/27 09:15:10;;;;;;;4.93;1.40;;;;;;;;;;8383024;28;20482;-81
2022/07/27 09:19:15;;;;;;;9.05;2.35;;;;;;;;;;8380842;28;20060;-81
2022/07/27 09:23:31;;;;;;;2.92;1.13;;;;;;;;;;8415393;28;20116;-82
2022/07/27 09:27:35;;;;;;;1.25;0.90;;;;;;;;;;8431829;28;20044;-81
2022/07/27 09:31:42;;;;;;;5.25;1.38;;;;;;;;;;8422058;28;20093;-81
2022/07/27 09:35:59;;;;;;;2.88;1.25;;;;;;;;;;8414189;28;20048;-82
2022/07/27 09:40:16;;;;;;;2.00;1.25;;;;;;;;;;8430565;28;20418;-84
2022/07/27 09:44:34;;;;;;;2.50;1.15;;;;;;;;;;8430183;28;20108;-81
2022/07/27 09:48:39;;;;;;;6.22;1.58;;;;;;;;;;8412099;28;20040;-83
2022/07/27 09:52:41;;;;;;;5.50;2.22;;;;;;;;;;8402506;28;20423;-82
2022/07/27 09:56:57;;;;;;;4.82;2.67;;;;;;;;;;8389471;28;20436;-82
2022/07/27 10:01:01;;;;;;;6.00;1.98;;;;;;;;;;8394156;28;20052;-82
2022/07/27 10:05:05;;;;;;;2.58;1.40;;;;;;;;;;8418072;28;20044;-84
2022/07/27 10:09:08;;;;;;;4.30;1.40;;;;;;;;;;8404208;28;20127;-82
2022/07/27 10:13:13;;;;;;;6.10;1.58;;;;;;;;;;8410278;28;20036;-90
2022/07/27 10:17:16;;;;;;;4.75;1.60;;;;;;;;;;8408960;28;20067;-82
2022/07/27 10:21:21;;;;;;;3.83;1.52;;;;;;;;;;8413112;28;20077;-82
2022/07/27 10:25:25;;;;;;;3.38;1.30;;;;;;;;;;8397020;28;20040;-82
2022/07/27 10:29:32;;;;;;;2.97;1.15;;;;;;;;;;8406000;28;20040;-83
2022/07/27 10:33:46;;;;;;;3.88;1.15;;;;;;;;;;8391401;28;20064;-92
2022/07/27 10:38:08;;;;;;;3.05;1.30;;;;;;;;;;8410308;28;20044;-83
2022/07/27 10:42:26;;;;;;;1.55;1.23;;;;;;;;;;8409227;28;20464;-92
2022/07/27 10:46:32;;;;;;;5.82;1.02;;;;;;;;;;8415042;28;20055;-94
2022/07/27 10:50:36;;;;;;;1.80;1.00;;;;;;;;;;8376816;28;20048;-84
2022/07/27 10:54:59;;;;;;;6.05;1.20;;;;;;;;;;8375479;28;20554;-86
2022/07/27 11:31:35;;;;;;;6.75;1.80;;;;;;;;;;7937713;29;20115;-84
2022/07/27 11:35:57;;;;;;;5.10;2.33;;;;;;;;;;7998785;29;20151;-86
2022/07/27 11:40:04;;;;;;;5.22;1.60;;;;;;;;;;8057087;29;20062;-90
2022/07/27 11:44:15;;;;;;;2.13;1.20;;;;;;;;;;8055175;29;20083;-85
2022/07/27 11:48:23;;;;;;;3.47;1.60;;;;;;;;;;8094079;29;20051;-83
2022/07/27 11:52:27;;;;;;;2.20;1.38;;;;;;;;;;8105296;29;20056;-83
2022/07/27 11:56:32;;;;;;;2.85;1.40;;;;;;;;;;8100125;29;20145;-84
2022/07/27 12:00:43;;;;;;;3.15;1.30;;;;;;;;;;8167208;28;20079;-86
2022/07/27 12:04:51;;;;;;;2.90;1.45;;;;;;;;;;8382333;28;20115;-86
2022/07/27 12:08:55;;;;;;;5.57;1.27;;;;;;;;;;8373829;28;20044;-87
2022/07/27 12:12:58;;;;;;;2.53;1.50;;;;;;;;;;8380910;28;20119;-85
2022/07/27 12:17:20;;;;;;;2.65;1.50;;;;;;;;;;8374154;28;20054;-85
2022/07/27 12:21:29;;;;;;;1.50;1.40;;;;;;;;;;8376151;28;20463;-85
2022/07/27 12:25:37;;;;;;;3.42;1.58;;;;;;;;;;8383779;28;20086;-83
2022/07/27 12:29:58;;;;;;;2.92;1.45;;;;;;;;;;8407502;28;20131;-84
2022/07/27 12:34:01;;;;;;;4.85;2.08;;;;;;;;;;8416144;28;20085;-93
2022/07/27 12:38:07;;;;;;;3.53;1.80;;;;;;;;;;8405695;28;20089;-84
2022/07/27 12:42:11;;;;;;;2.28;1.50;;;;;;;;;;8428508;28;20490;-84
2022/07/27 12:46:15;;;;;;;4.10;2.03;;;;;;;;;;8384033;28;20053;-83
2022/07/27 12:50:29;;;;;;;4.13;1.70;;;;;;;;;;8378183;28;20943;-90
2022/07/27 12:54:41;;;;;;;3.15;1.40;;;;;;;;;;8377298;28;20060;-86
2022/07/27 12:59:16;;;;;;;3.90;1.48;;;;;;;;;;8370913;28;20536;-88
2022/07/27 13:03:33;;;;;;;4.72;1.70;;;;;;;;;;8396199;28;20075;-85
2022/07/27 13:07:48;;;;;;;2.50;1.35;;;;;;;;;;8371050;28;20490;-84
2022/07/27 13:12:03;;;;;;;6.15;1.60;;;;;;;;;;8363153;28;20102;-84
2022/07/27 13:16:09;;;;;;;1.95;1.50;;;;;;;;;;8387662;28;20052;-91
2022/07/27 13:20:16;;;;;;;2.70;1.33;;;;;;;;;;8370577;28;20505;-85
2022/07/27 13:24:43;;;;;;;2.63;1.58;;;;;;;;;;8378566;28;20044;-84
2022/07/27 13:28:55;;;;;;;3.22;1.42;;;;;;;;;;8380075;28;20393;-88
2022/07/27 13:33:09;;;;;;;4.53;1.77;;;;;;;;;;8382231;28;20072;-86
2022/07/27 13:37:23;;;;;;;2.40;1.60;;;;;;;;;;8383724;28;20737;-94
2022/07/27 13:41:29;;;;;;;2.80;1.50;;;;;;;;;;8393326;28;20535;-91
2022/07/27 13:45:44;;;;;;;3.30;1.80;;;;;;;;;;8374243;28;20067;-83
2022/07/27 13:49:57;;;;;;;3.20;1.67;;;;;;;;;;8384502;28;20584;-85
2022/07/27 13:54:03;;;;;;;4.15;1.90;;;;;;;;;;8380608;28;20040;-85
2022/07/27 13:58:08;;;;;;;2.35;1.83;;;;;;;;;;8386524;28;20045;-86
2022/07/27 14:07:06;;;;;;;5.38;1.90;;;;;;;;;;8373105;28;20068;-88
2022/07/27 14:11:20;;;;;;;4.55;1.85;;;;;;;;;;8387011;28;20052;-84
2022/07/27 14:15:41;;;;;;;5.93;1.77;;;;;;;;;;8392642;28;20488;-84
2022/07/27 14:19:55;;;;;;;2.38;1.55;;;;;;;;;;8392411;28;20127;-87
2022/07/27 14:24:04;;;;;;;3.28;1.40;;;;;;;;;;8393566;28;20040;-85
2022/07/27 14:28:13;;;;;;;3.47;1.70;;;;;;;;;;8394168;28;20760;-82
2022/07/27 14:32:17;;;;;;;4.63;1.60;;;;;;;;;;8419720;28;20112;-84
2022/07/27 14:36:22;;;;;;;6.57;2.42;;;;;;;;;;8393003;28;20504;-83
2022/07/27 14:40:26;;;;;;;4.00;1.80;;;;;;;;;;8391523;28;20082;-84
2022/07/27 14:44:29;;;;;;;2.88;1.67;;;;;;;;;;8386685;28;20053;-84
2022/07/27 14:48:34;;;;;;;5.20;2.10;;;;;;;;;;8381985;28;20056;-82
2022/07/27 14:52:45;;;;;;;3.90;1.90;;;;;;;;;;8380102;28;20144;-87
2022/07/27 14:56:49;;;;;;;;;;;;;;;;;;8389981;28;20047;-88
2022/07/27 15:00:53;;;;;;;3.20;1.77;;;;;;;;;;8372344;28;19951;-85
2022/07/27 15:05:03;;;;;;;6.50;1.98;;;;;;;;;;8388658;28;20496;-88
2022/07/27 15:09:09;;;;;;;6.75;2.20;;;;;;;;;;8388834;28;20467;-84
2022/07/27 15:13:15;;;;;;;7.28;2.10;;;;;;;;;;8387933;28;20099;-83
2022/07/27 15:17:20;;;;;;;16.33;4.28;;;;;;;;;;8389136;28;20071;-84
2022/07/27 15:25:57;;;;;;;8.90;2.80;;;;;;;;;;8430678;26;20044;-84
2022/07/27 15:30:03;;;;;;;5.90;2.17;;;;;;;;;;8426296;28;20040;-85
2022/07/27 15:34:07;;;;;;;6.05;2.00;;;;;;;;;;8432153;28;20079;-86
2022/07/27 15:38:11;;;;;;;6.07;2.78;;;;;;;;;;8430187;28;20048;-84
2022/07/27 15:42:17;;;;;;;3.20;1.85;;;;;;;;;;8431848;28;20162;-85
2022/07/27 15:46:23;;;;;;;3.88;1.60;;;;;;;;;;8423465;28;20804;-83
2022/07/27 15:50:26;;;;;;;8.40;1.90;;;;;;;;;;8426654;28;20100;-83
2022/07/27 15:54:30;;;;;;;3.45;1.70;;;;;;;;;;8432967;28;20051;-84
2022/07/27 15:58:34;;;;;;;2.30;1.90;;;;;;;;;;8433846;28;20048;-92
2022/07/27 16:02:38;;;;;;;3.15;1.70;;;;;;;;;;8426075;28;20045;-82
2022/07/27 16:06:42;;;;;;;4.45;1.98;;;;;;;;;;8401710;28;20045;-82
2022/07/27 16:10:47;;;;;;;3.05;1.60;;;;;;;;;;8415000;28;20045;-96
2022/07/27 16:14:52;;;;;;;2.22;1.80;;;;;;;;;;8430160;28;20051;-82
2022/07/27 16:18:57;;;;;;;6.50;1.77;;;;;;;;;;8418048;28;20403;-81
2022/07/27 16:23:00;;;;;;;5.03;1.70;;;;;;;;;;8432006;28;20052;-81
2022/07/27 16:27:05;;;;;;;5.07;1.77;;;;;;;;;;8418196;28;20123;-81
2022/07/27 16:31:12;;;;;;;2.95;1.60;;;;;;;;;;8432751;28;20096;-81
2022/07/27 16:35:17;;;;;;;3.15;1.55;;;;;;;;;;8417153;28;20135;-82
2022/07/27 16:39:20;;;;;;;4.47;1.85;;;;;;;;;;8420876;28;20040;-81
2022/07/27 16:43:28;;;;;;;3.15;1.98;;;;;;;;;;8420030;28;20508;-88
2022/07/27 16:47:32;;;;;;;4.97;1.92;;;;;;;;;;8410770;28;20049;-81
2022/07/27 16:51:36;;;;;;;2.17;1.30;;;;;;;;;;8428713;28;20047;-81
2022/07/27 16:55:40;;;;;;;1.85;1.40;;;;;;;;;;8432185;28;20044;-82
2022/07/27 16:59:44;;;;;;;2.38;1.60;;;;;;;;;;8431853;28;20074;-81
2022/07/27 17:03:50;;;;;;;2.60;1.65;;;;;;;;;;8405492;28;20492;-82
2022/07/27 17:07:55;;;;;;;4.40;1.80;;;;;;;;;;8404738;28;20036;-83
2022/07/27 17:11:59;;;;;;;2.88;1.60;;;;;;;;;;8419068;28;20478;-86
2022/07/27 17:16:08;;;;;;;4.18;2.08;;;;;;;;;;8418750;28;20507;-87
2022/07/27 17:20:13;;;;;;;3.83;2.00;;;;;;;;;;8415224;28;20051;-88
2022/07/27 17:24:16;;;;;;;3.50;2.10;;;;;;;;;;8414076;28;20059;-90
2022/07/27 17:28:20;;;;;;;2.45;1.77;;;;;;;;;;8419657;28;20052;-83
2022/07/27 17:32:23;;;;;;;2.00;1.60;;;;;;;;;;8412739;28;20044;-81
2022/07/27 17:36:27;;;;;;;5.55;1.80;;;;;;;;;;8422447;28;20041;-81
2022/07/27 17:40:31;;;;;;;5.07;1.90;;;;;;;;;;8423108;28;20488;-92
2022/07/27 17:44:37;;;;;;;4.55;2.25;;;;;;;;;;8430463;28;20047;-81
2022/07/27 17:48:41;;;;;;;2.80;2.03;;;;;;;;;;8426456;28;20044;-81
2022/07/27 17:52:45;;;;;;;4.05;2.75;;;;;;;;;;8416089;28;20384;-81
2022/07/27 17:56:49;;;;;;;6.25;2.70;;;;;;;;;;8423242;28;20214;-82
2022/07/27 18:00:52;;;;;;;4.70;3.20;;;;;;;;;;8428292;28;20047;-82
2022/07/27 18:04:55;;;;;;;8.48;5.25;;;;;;;;;;8426173;28;20484;-81
2022/07/27 18:09:05;;;;;;;8.27;4.90;;;;;;;;;;8403715;28;20067;-81
2022/07/27 18:13:13;;;;;;;;;;;;;;;;;;8420967;28;20041;-82
2022/07/27 18:17:18;;;;;;;10.43;6.13;;;;;;;;;;8430452;28;19963;-81
2022/07/27 18:21:22;;;;;;;16.13;7.95;;;;;;;;;;8429583;28;20150;-81
2022/07/27 18:25:30;;;;;;;8.65;4.50;;;;;;;;;;8429583;28;20060;-82
2022/07/27 18:29:34;;;;;;;10.10;6.55;;;;;;;;;;8429645;28;20064;-81
2022/07/27 18:33:44;;;;;;;10.65;6.60;;;;;;;;;;8415419;28;20081;-81
2022/07/27 18:37:50;;;;;;;11.18;5.35;;;;;;;;;;8429598;28;20047;-81
2022/07/27 18:42:02;;;;;;;11.70;4.40;;;;;;;;;;8417790;28;20434;-81
2022/07/27 18:46:05;;;;;;;6.85;3.90;;;;;;;;;;8416922;28;20119;-88
2022/07/27 18:50:17;;;;;;;7.10;3.85;;;;;;;;;;8429213;28;20072;-83
2022/07/27 18:54:28;;;;;;;5.00;2.90;;;;;;;;;;8429538;28;20296;-81
2022/07/27 18:58:39;;;;;;;5.18;2.90;;;;;;;;;;8429996;28;20044;-93
2022/07/27 19:02:44;;;;;;;6.75;3.03;;;;;;;;;;8430300;28;20051;-81
2022/07/27 19:06:49;;;;;;;8.02;3.30;;;;;;;;;;8430212;28;20044;-81
2022/07/27 19:10:57;;;;;;;7.68;4.15;;;;;;;;;;8431480;28;20059;-84
2022/07/27 19:15:21;;;;;;;6.68;3.70;;;;;;;;;;8428996;28;20058;-83
2022/07/27 19:19:24;;;;;;;9.23;4.78;;;;;;;;;;8428838;28;20044;-82
2022/07/27 19:23:30;;;;;;;6.72;3.97;;;;;;;;;;8428047;28;20064;-83
2022/07/27 19:27:47;;;;;;;4.95;2.97;;;;;;;;;;8426163;28;20444;-94
2022/07/27 19:31:54;;;;;;;5.45;3.60;;;;;;;;;;8417574;28;20055;-82
2022/07/27 19:35:58;;;;;;;7.65;3.60;;;;;;;;;;8434780;28;20048;-93
2022/07/27 19:40:02;;;;;;;9.02;3.53;;;;;;;;;;8434629;28;20147;-81
2022/07/27 19:44:06;;;;;;;6.32;3.58;;;;;;;;;;8434439;28;20063;-80
2022/07/27 19:48:12;;;;;;;6.18;3.00;;;;;;;;;;8434727;28;20048;-81
2022/07/27 19:52:16;;;;;;;7.68;4.32;;;;;;;;;;8434252;28;20044;-85
2022/07/27 19:56:19;;;;;;;9.57;3.83;;;;;;;;;;8434001;28;20063;-81
2022/07/27 20:00:23;;;;;;;8.10;3.80;;;;;;;;;;8434005;28;20036;-80
2022/07/27 20:04:29;;;;;;;6.03;3.97;;;;;;;;;;8433771;28;20044;-81
2022/07/27 20:08:33;;;;;;;7.57;4.22;;;;;;;;;;8419793;28;20480;-81
2022/07/27 20:12:37;;;;;;;8.88;4.55;;;;;;;;;;8434005;28;20134;-80
2022/07/27 20:16:41;;;;;;;6.85;3.63;;;;;;;;;;8433523;28;20048;-80
2022/07/27 20:20:46;;;;;;;7.35;3.80;;;;;;;;;;8433612;28;20051;-81
2022/07/27 20:24:49;;;;;;;5.70;3.00;;;;;;;;;;8433508;28;20056;-91
2022/07/27 20:28:52;;;;;;;12.50;6.15;;;;;;;;;;8433033;28;20139;-81
2022/07/27 20:32:57;;;;;;;8.55;5.05;;;;;;;;;;8432964;28;20166;-80
2022/07/27 20:37:02;;;;;;;12.10;4.63;;;;;;;;;;8431882;28;20078;-81
2022/07/27 20:41:05;;;;;;;12.48;6.07;;;;;;;;;;8432434;28;20040;-81
2022/07/27 20:45:13;;;;;;;9.93;5.45;;;;;;;;;;8418300;28;20043;-81
2022/07/27 20:49:16;;;;;;;9.85;5.60;;;;;;;;;;8432438;28;20040;-81
2022/07/27 20:53:21;;;;;;;9.90;5.53;;;;;;;;;;8432159;28;20486;-81
2022/07/27 20:57:24;;;;;;;15.18;4.57;;;;;;;;;;8432065;28;20048;-81
2022/07/27 21:01:27;;;;;;;8.05;4.60;;;;;;;;;;8432459;28;20044;-80
2022/07/27 21:05:31;;;;;;;7.68;4.38;;;;;;;;;;8431911;28;20040;-80
2022/07/27 21:09:36;;;;;;;7.97;4.10;;;;;;;;;;8431633;28;20035;-81
2022/07/27 21:13:39;;;;;;;7.25;4.05;;;;;;;;;;8432018;28;20055;-81
2022/07/27 21:17:43;;;;;;;6.47;4.00;;;;;;;;;;8431872;28;20048;-84
2022/07/27 21:21:46;;;;;;;11.80;4.00;;;;;;;;;;8431316;28;20055;-81
2022/07/27 21:25:51;;;;;;;6.88;4.30;;;;;;;;;;8417221;28;20078;-81
2022/07/27 21:29:54;;;;;;;8.52;3.85;;;;;;;;;;8417343;28;20467;-81
2022/07/27 21:33:57;;;;;;;6.80;4.00;;;;;;;;;;8430473;28;20036;-81
2022/07/27 21:38:01;;;;;;;5.85;4.00;;;;;;;;;;8430989;28;20070;-81
2022/07/27 21:42:06;;;;;;;8.25;4.65;;;;;;;;;;8430740;28;20051;-81
2022/07/27 21:46:09;;;;;;;5.28;3.70;;;;;;;;;;8431571;28;20071;-81
2022/07/27 21:50:11;;;;;;;5.90;3.85;;;;;;;;;;8431025;28;20071;-82
2022/07/27 21:54:15;;;;;;;5.38;3.90;;;;;;;;;;8430924;28;20487;-82
2022/07/27 21:58:19;;;;;;;6.63;4.20;;;;;;;;;;8430715;28;20532;-81
2022/07/27 22:02:21;;;;;;;7.55;4.22;;;;;;;;;;8430284;28;20074;-81
2022/07/27 22:06:25;;;;;;;7.22;3.90;;;;;;;;;;8430378;28;20036;-81
2022/07/27 22:10:56;;;;;;;7.00;4.07;;;;;;;;;;8430569;28;20549;-81
2022/07/27 22:15:11;;;;;;;10.40;4.32;;;;;;;;;;8428010;28;20040;-81
2022/07/27 22:19:14;;;;;;;6.35;4.40;;;;;;;;;;8430255;28;20044;-81
2022/07/27 22:23:17;;;;;;;8.30;4.00;;;;;;;;;;8430436;28;20385;-81
2022/07/27 22:27:19;;;;;;;6.22;3.72;;;;;;;;;;8430002;28;20101;-81
2022/07/27 22:31:23;;;;;;;8.75;4.18;;;;;;;;;;8429915;28;20048;-81
2022/07/27 22:35:27;;;;;;;5.97;3.90;;;;;;;;;;8430073;28;20563;-81
2022/07/27 22:39:30;;;;;;;5.50;3.50;;;;;;;;;;8429871;28;20130;-80
2022/07/27 22:43:32;;;;;;;5.47;3.50;;;;;;;;;;8429796;28;20040;-81
2022/07/27 22:47:36;;;;;;;8.63;4.20;;;;;;;;;;8429443;28;20044;-83
2022/07/27 22:51:41;;;;;;;6.05;3.67;;;;;;;;;;8405956;28;20230;-82
2022/07/27 22:55:43;;;;;;;7.57;3.45;;;;;;;;;;8429412;28;20048;-81
2022/07/27 22:59:46;;;;;;;6.95;3.90;;;;;;;;;;8430524;28;20044;-81
2022/07/27 23:03:50;;;;;;;6.07;4.00;;;;;;;;;;8435820;28;20400;-81
2022/07/27 23:07:53;;;;;;;7.45;3.58;;;;;;;;;;8435593;28;20048;-81
2022/07/27 23:11:55;;;;;;;6.85;3.53;;;;;;;;;;8431937;28;20101;-81
2022/07/27 23:15:58;;;;;;;7.65;3.72;;;;;;;;;;8435842;28;20048;-87
2022/07/27 23:20:02;;;;;;;5.95;3.85;;;;;;;;;;8435473;28;20079;-81
2022/07/27 23:24:05;;;;;;;6.88;3.65;;;;;;;;;;8434970;28;20056;-81
2022/07/27 23:28:08;;;;;;;5.10;3.50;;;;;;;;;;8435660;28;20504;-81
2022/07/27 23:32:10;;;;;;;5.10;3.60;;;;;;;;;;8435263;28;20043;-81
2022/07/27 23:36:15;;;;;;;8.48;3.63;;;;;;;;;;8434695;28;20051;-81
2022/07/27 23:40:17;;;;;;;7.85;3.75;;;;;;;;;;8434638;28;20056;-81
2022/07/27 23:44:20;;;;;;;4.90;3.13;;;;;;;;;;8434667;28;20056;-81
2022/07/27 23:48:22;;;;;;;5.88;4.10;;;;;;;;;;8434551;28;20047;-81
2022/07/27 23:52:26;;;;;;;5.63;3.30;;;;;;;;;;8434418;28;20513;-82
2022/07/27 23:56:29;;;;;;;8.15;4.32;;;;;;;;;;8434619;28;20515;-81
